sensor_id;sensor_type;location;lat;lon;timestamp;pressure;altitude;pressure_sealevel;temperature;humidity
5952;BME280;3001;42.622;23.194;2023-01-13T00:00:32;91510.16;;;6.60;88.00
5952;BME280;3001;42.622;23.194;2023-01-13T00:03:00;91513.25;;;6.62;88.21
5952;BME280;3001;42.622;23.194;2023-01-13T00:05:27;91506.84;;;6.55;88.45
5952;BME280;3001;42.622;23.194;2023-01-13T00:07:54;91511.50;;;6.53;88.71
5952;BME280;3001;42.622;23.194;2023-01-13T00:10:20;91517.97;;;6.50;89.07
5952;BME280;3001;42.622;23.194;2023-01-13T00:12:47;91513.00;;;6.59;89.28
5952;BME280;3001;42.622;23.194;2023-01-13T00:15:14;91511.50;;;6.53;89.43
5952;BME280;3001;42.622;23.194;2023-01-13T00:17:41;91521.72;;;6.63;89.04
5952;BME280;3001;42.622;23.194;2023-01-13T00:20:11;91518.75;;;6.51;89.11
5952;BME280;3001;42.622;23.194;2023-01-13T00:22:38;91513.13;;;6.44;89.56
5952;BME280;3001;42.622;23.194;2023-01-13T00:25:05;91521.38;;;6.41;89.83
5952;BME280;3001;42.622;23.194;2023-01-13T00:27:32;91523.38;;;6.54;88.80
5952;BME280;3001;42.622;23.194;2023-01-13T00:29:59;91512.50;;;6.57;89.13
5952;BME280;3001;42.622;23.194;2023-01-13T00:32:26;91513.72;;;6.64;88.55
5952;BME280;3001;42.622;23.194;2023-01-13T00:34:53;91513.47;;;6.66;88.07
5952;BME280;3001;42.622;23.194;2023-01-13T00:37:21;91511.75;;;6.56;88.65
5952;BME280;3001;42.622;23.194;2023-01-13T00:39:49;91509.13;;;6.61;88.64
5952;BME280;3001;42.622;23.194;2023-01-13T00:42:16;91511.19;;;6.59;89.31
5952;BME280;3001;42.622;23.194;2023-01-13T00:45:00;91513.19;;;6.67;88.29
5952;BME280;3001;42.622;23.194;2023-01-13T00:47:27;91520.63;;;6.74;87.72
5952;BME280;3001;42.622;23.194;2023-01-13T00:49:53;91515.53;;;6.64;88.79
5952;BME280;3001;42.622;23.194;2023-01-13T00:52:21;91511.09;;;6.69;88.42
5952;BME280;3001;42.622;23.194;2023-01-13T00:54:48;91513.47;;;6.66;88.27
5952;BME280;3001;42.622;23.194;2023-01-13T00:57:15;91511.75;;;6.56;88.34
5952;BME280;3001;42.622;23.194;2023-01-13T00:59:43;91509.81;;;6.72;87.39
5952;BME280;3001;42.622;23.194;2023-01-13T01:02:09;91507.34;;;6.57;88.02
5952;BME280;3001;42.622;23.194;2023-01-13T01:04:36;91503.91;;;6.66;87.98
5952;BME280;3001;42.622;23.194;2023-01-13T01:07:03;91501.69;;;6.83;87.07
5952;BME280;3001;42.622;23.194;2023-01-13T01:09:31;91499.53;;;6.67;87.44
5952;BME280;3001;42.622;23.194;2023-01-13T01:11:59;91500.56;;;6.66;87.39
5952;BME280;3001;42.622;23.194;2023-01-13T01:14:26;91509.03;;;6.71;87.43
5952;BME280;3001;42.622;23.194;2023-01-13T01:16:53;91500.50;;;6.42;88.53
5952;BME280;3001;42.622;23.194;2023-01-13T01:19:20;91501.88;;;6.63;88.74
5952;BME280;3001;42.622;23.194;2023-01-13T01:21:47;91494.13;;;6.63;87.73
5952;BME280;3001;42.622;23.194;2023-01-13T01:24:13;91489.47;;;6.65;87.01
5952;BME280;3001;42.622;23.194;2023-01-13T01:26:42;91486.56;;;6.43;88.34
5952;BME280;3001;42.622;23.194;2023-01-13T01:29:11;91487.94;;;6.64;87.37
5952;BME280;3001;42.622;23.194;2023-01-13T01:31:39;91483.38;;;6.51;88.30
5952;BME280;3001;42.622;23.194;2023-01-13T01:34:06;91482.94;;;6.44;89.01
5952;BME280;3001;42.622;23.194;2023-01-13T01:36:33;91485.09;;;6.61;88.37
5952;BME280;3001;42.622;23.194;2023-01-13T01:39:01;91482.16;;;6.77;87.81
5952;BME280;3001;42.622;23.194;2023-01-13T01:41:29;91473.75;;;6.90;86.91
5952;BME280;3001;42.622;23.194;2023-01-13T01:44:00;91426.41;;;6.48;86.73
5952;BME280;3001;42.622;23.194;2023-01-13T01:46:33;91482.59;;;6.84;86.14
5952;BME280;3001;42.622;23.194;2023-01-13T01:49:05;91482.34;;;6.80;86.52
5952;BME280;3001;42.622;23.194;2023-01-13T01:51:36;91475.00;;;6.92;86.24
5952;BME280;3001;42.622;23.194;2023-01-13T01:54:06;91472.81;;;6.81;86.27
5952;BME280;3001;42.622;23.194;2023-01-13T01:56:34;91472.38;;;6.74;87.03
5952;BME280;3001;42.622;23.194;2023-01-13T01:59:04;91472.31;;;6.79;87.08
5952;BME280;3001;42.622;23.194;2023-01-13T02:01:31;91471.03;;;6.77;87.88
5952;BME280;3001;42.622;23.194;2023-01-13T02:04:02;91473.78;;;6.85;86.73
5952;BME280;3001;42.622;23.194;2023-01-13T02:06:31;91479.63;;;6.95;86.23
5952;BME280;3001;42.622;23.194;2023-01-13T02:08:58;91472.13;;;6.94;86.52
5952;BME280;3001;42.622;23.194;2023-01-13T02:11:28;91472.13;;;6.94;86.59
5952;BME280;3001;42.622;23.194;2023-01-13T02:14:14;91469.91;;;6.87;87.10
5952;BME280;3001;42.622;23.194;2023-01-13T02:16:46;91476.38;;;6.85;86.58
5952;BME280;3001;42.622;23.194;2023-01-13T02:19:33;91474.72;;;6.94;85.94
5952;BME280;3001;42.622;23.194;2023-01-13T02:22:26;91468.31;;;6.91;86.02
5952;BME280;3001;42.622;23.194;2023-01-13T02:25:23;91472.66;;;6.96;85.87
5952;BME280;3001;42.622;23.194;2023-01-13T02:28:05;91463.97;;;6.87;86.36
5952;BME280;3001;42.622;23.194;2023-01-13T02:30:41;91462.53;;;6.76;86.98
5952;BME280;3001;42.622;23.194;2023-01-13T02:33:51;91468.22;;;6.73;87.32
5952;BME280;3001;42.622;23.194;2023-01-13T02:36:27;91417.69;;;6.39;86.96
5952;BME280;3001;42.622;23.194;2023-01-13T02:39:00;91468.94;;;6.78;86.37
5952;BME280;3001;42.622;23.194;2023-01-13T02:41:35;91471.69;;;6.87;86.08
5952;BME280;3001;42.622;23.194;2023-01-13T02:44:25;91471.31;;;6.75;86.94
5952;BME280;3001;42.622;23.194;2023-01-13T02:46:57;91461.25;;;6.74;87.08
5952;BME280;3001;42.622;23.194;2023-01-13T02:49:32;91470.59;;;6.70;87.80
5952;BME280;3001;42.622;23.194;2023-01-13T02:52:05;91463.28;;;6.77;87.32
5952;BME280;3001;42.622;23.194;2023-01-13T02:54:34;91459.94;;;6.76;86.90
5952;BME280;3001;42.622;23.194;2023-01-13T02:57:05;91463.28;;;6.77;86.85
5952;BME280;3001;42.622;23.194;2023-01-13T02:59:34;91462.06;;;6.69;87.53
5952;BME280;3001;42.622;23.194;2023-01-13T03:02:05;91459.97;;;6.71;87.25
5952;BME280;3001;42.622;23.194;2023-01-13T03:04:46;91468.09;;;6.88;86.47
5952;BME280;3001;42.622;23.194;2023-01-13T03:10:07;91466.16;;;6.75;87.61
5952;BME280;3001;42.622;23.194;2023-01-13T03:12:43;91466.09;;;6.80;86.96
5952;BME280;3001;42.622;23.194;2023-01-13T03:15:16;91468.09;;;6.88;86.18
5952;BME280;3001;42.622;23.194;2023-01-13T03:17:53;91468.25;;;6.96;86.15
5952;BME280;3001;42.622;23.194;2023-01-13T03:20:24;91465.06;;;6.81;86.54
5952;BME280;3001;42.622;23.194;2023-01-13T03:22:58;91473.38;;;6.73;87.38
5952;BME280;3001;42.622;23.194;2023-01-13T03:25:28;91464.69;;;6.64;87.73
5952;BME280;3001;42.622;23.194;2023-01-13T03:28:01;91464.22;;;6.62;87.43
5952;BME280;3001;42.622;23.194;2023-01-13T03:30:32;91469.91;;;6.59;87.61
5952;BME280;3001;42.622;23.194;2023-01-13T03:33:06;91462.66;;;6.61;88.03
5952;BME280;3001;42.622;23.194;2023-01-13T03:35:38;91473.41;;;6.45;88.39
5952;BME280;3001;42.622;23.194;2023-01-13T03:38:10;91470.53;;;6.46;88.14
5952;BME280;3001;42.622;23.194;2023-01-13T03:40:43;91464.75;;;6.59;87.93
5952;BME280;3001;42.622;23.194;2023-01-13T03:43:28;91468.75;;;6.75;86.96
5952;BME280;3001;42.622;23.194;2023-01-13T03:46:18;91468.50;;;6.72;87.05
5952;BME280;3001;42.622;23.194;2023-01-13T03:48:49;91470.78;;;6.73;87.23
5952;BME280;3001;42.622;23.194;2023-01-13T03:51:21;91471.63;;;6.69;87.14
5952;BME280;3001;42.622;23.194;2023-01-13T03:53:54;91468.50;;;6.72;87.21
5952;BME280;3001;42.622;23.194;2023-01-13T03:56:26;91472.13;;;6.71;87.52
5952;BME280;3001;42.622;23.194;2023-01-13T03:58:56;91473.28;;;6.55;87.95
5952;BME280;3001;42.622;23.194;2023-01-13T04:01:28;91469.19;;;6.54;87.83
5952;BME280;3001;42.622;23.194;2023-01-13T04:04:00;91472.00;;;6.57;87.86
5952;BME280;3001;42.622;23.194;2023-01-13T04:06:35;91473.53;;;6.58;87.82
5952;BME280;3001;42.622;23.194;2023-01-13T04:09:13;91474.25;;;6.64;87.44
5952;BME280;3001;42.622;23.194;2023-01-13T04:11:47;91474.03;;;6.60;87.65
5952;BME280;3001;42.622;23.194;2023-01-13T04:14:18;91479.38;;;6.69;87.09
5952;BME280;3001;42.622;23.194;2023-01-13T04:16:47;91475.81;;;6.65;87.41
5952;BME280;3001;42.622;23.194;2023-01-13T04:19:15;91480.59;;;6.76;86.73
5952;BME280;3001;42.622;23.194;2023-01-13T04:21:42;91470.28;;;6.76;86.79
5952;BME280;3001;42.622;23.194;2023-01-13T04:24:09;91485.06;;;6.94;86.33
5952;BME280;3001;42.622;23.194;2023-01-13T04:26:36;91481.78;;;6.88;86.33
5952;BME280;3001;42.622;23.194;2023-01-13T04:29:03;91486.38;;;6.91;86.36
5952;BME280;3001;42.622;23.194;2023-01-13T04:31:29;91490.75;;;6.91;86.16
5952;BME280;3001;42.622;23.194;2023-01-13T04:33:56;91485.47;;;6.78;86.71
5952;BME280;3001;42.622;23.194;2023-01-13T04:36:24;91488.59;;;6.75;86.96
5952;BME280;3001;42.622;23.194;2023-01-13T04:38:52;91495.59;;;6.74;86.85
5952;BME280;3001;42.622;23.194;2023-01-13T04:41:19;91489.06;;;6.81;86.60
5952;BME280;3001;42.622;23.194;2023-01-13T04:43:46;91493.91;;;6.88;86.58
5952;BME280;3001;42.622;23.194;2023-01-13T04:46:13;91486.94;;;6.88;86.38
5952;BME280;3001;42.622;23.194;2023-01-13T04:48:40;91489.34;;;6.80;87.34
5952;BME280;3001;42.622;23.194;2023-01-13T04:51:07;91487.31;;;6.72;86.62
5952;BME280;3001;42.622;23.194;2023-01-13T04:53:35;91488.88;;;6.73;86.98
5952;BME280;3001;42.622;23.194;2023-01-13T04:56:01;91488.44;;;6.66;87.37
5952;BME280;3001;42.622;23.194;2023-01-13T04:58:28;91489.38;;;6.75;87.19
5952;BME280;3001;42.622;23.194;2023-01-13T05:00:55;91500.22;;;6.77;86.93
5952;BME280;3001;42.622;23.194;2023-01-13T05:03:21;91494.50;;;6.80;87.18
5952;BME280;3001;42.622;23.194;2023-01-13T05:05:51;91496.78;;;6.81;86.59
5952;BME280;3001;42.622;23.194;2023-01-13T05:08:17;91493.91;;;6.60;87.39
5952;BME280;3001;42.622;23.194;2023-01-13T05:10:45;91497.63;;;6.77;87.03
5952;BME280;3001;42.622;23.194;2023-01-13T05:13:12;91504.88;;;6.75;86.95
5952;BME280;3001;42.622;23.194;2023-01-13T05:15:57;91503.91;;;6.66;87.73
5952;BME280;3001;42.622;23.194;2023-01-13T05:18:42;91504.94;;;6.65;87.23
5952;BME280;3001;42.622;23.194;2023-01-13T05:21:09;91505.69;;;6.71;87.70
5952;BME280;3001;42.622;23.194;2023-01-13T05:23:56;91511.34;;;6.73;87.63
5952;BME280;3001;42.622;23.194;2023-01-13T05:26:37;91505.88;;;6.79;87.26
5952;BME280;3001;42.622;23.194;2023-01-13T05:29:04;91513.44;;;6.94;86.81
5952;BME280;3001;42.622;23.194;2023-01-13T05:31:31;91508.91;;;6.86;86.76
5952;BME280;3001;42.622;23.194;2023-01-13T05:33:57;91514.88;;;6.81;86.83
5952;BME280;3001;42.622;23.194;2023-01-13T05:36:24;91513.00;;;6.87;87.03
5952;BME280;3001;42.622;23.194;2023-01-13T05:38:51;91515.66;;;6.82;86.86
5952;BME280;3001;42.622;23.194;2023-01-13T05:41:17;91512.47;;;6.90;86.74
5952;BME280;3001;42.622;23.194;2023-01-13T05:44:03;91506.50;;;6.94;86.80
5952;BME280;3001;42.622;23.194;2023-01-13T05:46:30;91513.44;;;6.94;86.56
5952;BME280;3001;42.622;23.194;2023-01-13T05:48:56;91504.41;;;6.96;86.51
5952;BME280;3001;42.622;23.194;2023-01-13T05:51:24;91510.56;;;7.00;86.38
5952;BME280;3001;42.622;23.194;2023-01-13T05:53:51;91511.41;;;6.96;86.64
5952;BME280;3001;42.622;23.194;2023-01-13T05:56:17;91512.53;;;6.85;87.06
5952;BME280;3001;42.622;23.194;2023-01-13T05:58:44;91516.88;;;6.89;86.85
5952;BME280;3001;42.622;23.194;2023-01-13T06:01:12;91510.50;;;6.82;87.26
5952;BME280;3001;42.622;23.194;2023-01-13T06:03:39;91512.78;;;6.83;87.16
5952;BME280;3001;42.622;23.194;2023-01-13T06:06:06;91519.94;;;6.91;87.11
5952;BME280;3001;42.622;23.194;2023-01-13T06:08:33;91518.63;;;6.94;86.77
5952;BME280;3001;42.622;23.194;2023-01-13T06:11:00;91527.41;;;6.93;86.70
5952;BME280;3001;42.622;23.194;2023-01-13T06:13:26;91508.28;;;6.94;85.59
5952;BME280;3001;42.622;23.194;2023-01-13T06:15:55;91533.91;;;7.14;85.27
5952;BME280;3001;42.622;23.194;2023-01-13T06:18:24;91529.03;;;7.12;85.17
5952;BME280;3001;42.622;23.194;2023-01-13T06:20:50;91532.44;;;7.08;84.86
5952;BME280;3001;42.622;23.194;2023-01-13T06:23:17;91537.84;;;7.11;85.11
5952;BME280;3001;42.622;23.194;2023-01-13T06:25:48;91533.00;;;7.05;85.00
5952;BME280;3001;42.622;23.194;2023-01-13T06:28:16;91543.25;;;7.10;85.55
5952;BME280;3001;42.622;23.194;2023-01-13T06:30:45;91534.28;;;7.07;85.96
5952;BME280;3001;42.622;23.194;2023-01-13T06:33:15;91531.59;;;6.89;86.77
5952;BME280;3001;42.622;23.194;2023-01-13T06:35:49;91525.44;;;6.85;87.31
5952;BME280;3001;42.622;23.194;2023-01-13T06:38:19;91532.63;;;6.88;87.19
5952;BME280;3001;42.622;23.194;2023-01-13T06:40:46;91527.97;;;6.90;87.51
5952;BME280;3001;42.622;23.194;2023-01-13T06:43:13;91526.84;;;6.73;87.78
5952;BME280;3001;42.622;23.194;2023-01-13T06:45:40;91530.16;;;6.78;87.59
5952;BME280;3001;42.622;23.194;2023-01-13T06:48:07;91529.19;;;6.97;87.25
5952;BME280;3001;42.622;23.194;2023-01-13T06:50:34;91526.59;;;6.97;86.99
5952;BME280;3001;42.622;23.194;2023-01-13T06:53:02;91518.84;;;6.97;87.17
5952;BME280;3001;42.622;23.194;2023-01-13T06:55:28;91524.25;;;7.01;87.35
5952;BME280;3001;42.622;23.194;2023-01-13T06:57:56;91523.16;;;7.07;87.07
5952;BME280;3001;42.622;23.194;2023-01-13T07:00:24;91522.97;;;6.98;86.89
5952;BME280;3001;42.622;23.194;2023-01-13T07:02:51;91519.16;;;6.91;87.79
5952;BME280;3001;42.622;23.194;2023-01-13T07:05:18;91521.06;;;6.80;88.19
5952;BME280;3001;42.622;23.194;2023-01-13T07:07:45;91526.34;;;6.99;87.97
5952;BME280;3001;42.622;23.194;2023-01-13T07:10:14;91529.28;;;6.87;88.17
5952;BME280;3001;42.622;23.194;2023-01-13T07:12:47;91528.09;;;7.03;87.90
5952;BME280;3001;42.622;23.194;2023-01-13T07:15:37;91518.53;;;7.04;87.73
5952;BME280;3001;42.622;23.194;2023-01-13T07:18:03;91518.91;;;6.92;88.25
5952;BME280;3001;42.622;23.194;2023-01-13T07:20:30;91514.25;;;6.94;88.58
5952;BME280;3001;42.622;23.194;2023-01-13T07:22:58;91504.47;;;6.91;88.98
5952;BME280;3001;42.622;23.194;2023-01-13T07:25:26;91513.97;;;6.96;88.18
5952;BME280;3001;42.622;23.194;2023-01-13T07:27:54;91511.41;;;6.91;88.40
5952;BME280;3001;42.622;23.194;2023-01-13T07:30:22;91512.50;;;7.13;88.28
5952;BME280;3001;42.622;23.194;2023-01-13T07:32:49;91500.22;;;7.00;88.58
5952;BME280;3001;42.622;23.194;2023-01-13T07:35:15;91504.94;;;7.22;87.31
5952;BME280;3001;42.622;23.194;2023-01-13T07:37:47;91508.00;;;7.24;87.24
5952;BME280;3001;42.622;23.194;2023-01-13T07:40:14;91501.53;;;7.26;87.32
5952;BME280;3001;42.622;23.194;2023-01-13T07:42:42;91503.09;;;7.22;87.48
5952;BME280;3001;42.622;23.194;2023-01-13T07:45:26;91498.56;;;7.38;87.26
5952;BME280;3001;42.622;23.194;2023-01-13T07:47:53;91507.03;;;7.20;88.50
5952;BME280;3001;42.622;23.194;2023-01-13T07:50:19;91507.09;;;7.10;88.70
5952;BME280;3001;42.622;23.194;2023-01-13T07:52:48;91508.38;;;7.12;88.99
5952;BME280;3001;42.622;23.194;2023-01-13T07:55:15;91511.91;;;6.98;89.56
5952;BME280;3001;42.622;23.194;2023-01-13T07:57:43;91512.38;;;7.00;89.84
5952;BME280;3001;42.622;23.194;2023-01-13T08:00:11;91521.63;;;7.06;89.55
5952;BME280;3001;42.622;23.194;2023-01-13T08:02:37;91529.41;;;7.01;89.56
5952;BME280;3001;42.622;23.194;2023-01-13T08:05:05;91525.56;;;7.50;87.93
5952;BME280;3001;42.622;23.194;2023-01-13T08:07:32;91529.38;;;7.53;87.27
5952;BME280;3001;42.622;23.194;2023-01-13T08:09:58;91531.59;;;7.41;87.63
5952;BME280;3001;42.622;23.194;2023-01-13T08:12:25;91526.03;;;7.52;87.43
5952;BME280;3001;42.622;23.194;2023-01-13T08:15:11;91528.78;;;7.61;87.03
5952;BME280;3001;42.622;23.194;2023-01-13T08:17:37;91528.22;;;7.64;87.35
5952;BME280;3001;42.622;23.194;2023-01-13T08:20:05;91534.03;;;7.56;87.41
5952;BME280;3001;42.622;23.194;2023-01-13T08:22:32;91529.84;;;7.60;87.00
5952;BME280;3001;42.622;23.194;2023-01-13T08:24:59;91531.78;;;7.68;87.32
5952;BME280;3001;42.622;23.194;2023-01-13T08:27:25;91533.97;;;7.61;86.96
5952;BME280;3001;42.622;23.194;2023-01-13T08:29:52;91528.50;;;7.62;88.02
5952;BME280;3001;42.622;23.194;2023-01-13T08:32:20;91531.63;;;7.59;88.07
5952;BME280;3001;42.622;23.194;2023-01-13T08:34:47;91540.66;;;7.62;87.51
5952;BME280;3001;42.622;23.194;2023-01-13T08:37:14;91539.84;;;7.66;87.11
5952;BME280;3001;42.622;23.194;2023-01-13T08:39:41;91540.44;;;7.58;87.12
5952;BME280;3001;42.622;23.194;2023-01-13T08:42:08;91541.97;;;7.59;87.08
5952;BME280;3001;42.622;23.194;2023-01-13T08:44:35;91549.16;;;7.86;86.34
5952;BME280;3001;42.622;23.194;2023-01-13T08:47:01;91541.59;;;7.71;86.79
5952;BME280;3001;42.622;23.194;2023-01-13T08:49:30;91546.59;;;7.62;86.95
5952;BME280;3001;42.622;23.194;2023-01-13T08:51:57;91544.50;;;7.64;86.91
5952;BME280;3001;42.622;23.194;2023-01-13T08:54:23;91546.91;;;7.79;86.38
5952;BME280;3001;42.622;23.194;2023-01-13T08:56:50;91544.47;;;7.69;86.58
5952;BME280;3001;42.622;23.194;2023-01-13T08:59:18;91537.06;;;7.81;86.61
5952;BME280;3001;42.622;23.194;2023-01-13T09:01:45;91543.09;;;7.77;87.30
5952;BME280;3001;42.622;23.194;2023-01-13T09:04:15;91543.50;;;7.84;87.37
5952;BME280;3001;42.622;23.194;2023-01-13T09:06:43;91535.53;;;7.80;87.43
5952;BME280;3001;42.622;23.194;2023-01-13T09:09:11;91538.88;;;7.81;88.00
5952;BME280;3001;42.622;23.194;2023-01-13T09:11:40;91538.25;;;7.89;87.40
5952;BME280;3001;42.622;23.194;2023-01-13T09:14:28;91543.94;;;7.91;87.62
5952;BME280;3001;42.622;23.194;2023-01-13T09:16:55;91544.72;;;7.91;86.74
5952;BME280;3001;42.622;23.194;2023-01-13T09:19:22;91546.97;;;7.98;86.27
5952;BME280;3001;42.622;23.194;2023-01-13T09:21:50;91554.91;;;8.01;86.12
5952;BME280;3001;42.622;23.194;2023-01-13T09:24:18;91550.63;;;7.92;84.57
5952;BME280;3001;42.622;23.194;2023-01-13T09:26:44;91551.72;;;8.09;82.84
5952;BME280;3001;42.622;23.194;2023-01-13T09:29:11;91548.44;;;8.04;83.27
5952;BME280;3001;42.622;23.194;2023-01-13T09:31:38;91544.78;;;8.05;82.81
5952;BME280;3001;42.622;23.194;2023-01-13T09:34:06;91544.38;;;7.98;83.31
5952;BME280;3001;42.622;23.194;2023-01-13T09:36:54;91538.03;;;7.85;84.75
5952;BME280;3001;42.622;23.194;2023-01-13T09:39:21;91536.72;;;7.88;85.52
5952;BME280;3001;42.622;23.194;2023-01-13T09:41:50;91543.16;;;7.90;85.45
5952;BME280;3001;42.622;23.194;2023-01-13T09:44:41;91540.28;;;7.92;85.40
5952;BME280;3001;42.622;23.194;2023-01-13T09:47:16;91535.06;;;7.97;86.21
5952;BME280;3001;42.622;23.194;2023-01-13T09:49:44;91535.06;;;7.97;86.81
5952;BME280;3001;42.622;23.194;2023-01-13T09:52:15;91532.75;;;8.14;86.58
5952;BME280;3001;42.622;23.194;2023-01-13T09:54:47;91534.53;;;8.37;86.00
5952;BME280;3001;42.622;23.194;2023-01-13T09:57:16;91529.78;;;8.25;86.00
5952;BME280;3001;42.622;23.194;2023-01-13T09:59:44;91533.00;;;8.36;86.13
5952;BME280;3001;42.622;23.194;2023-01-13T10:02:30;91521.19;;;8.30;86.56
5952;BME280;3001;42.622;23.194;2023-01-13T10:05:10;91517.81;;;8.48;85.62
5952;BME280;3001;42.622;23.194;2023-01-13T10:07:45;91512.84;;;8.33;85.68
5952;BME280;3001;42.622;23.194;2023-01-13T10:10:17;91518.78;;;8.52;85.35
5952;BME280;3001;42.622;23.194;2023-01-13T10:12:47;91514.44;;;8.47;85.76
5952;BME280;3001;42.622;23.194;2023-01-13T10:15:33;91515.84;;;8.58;85.33
5952;BME280;3001;42.622;23.194;2023-01-13T10:18:07;91518.28;;;8.68;85.28
5952;BME280;3001;42.622;23.194;2023-01-13T10:20:44;91510.31;;;8.64;84.09
5952;BME280;3001;42.622;23.194;2023-01-13T10:23:29;91506.59;;;8.70;84.07
5952;BME280;3001;42.622;23.194;2023-01-13T10:26:05;91509.38;;;8.74;84.14
5952;BME280;3001;42.622;23.194;2023-01-13T10:28:36;91503.44;;;8.73;84.30
5952;BME280;3001;42.622;23.194;2023-01-13T10:31:09;91503.88;;;8.94;83.17
5952;BME280;3001;42.622;23.194;2023-01-13T10:33:36;91502.63;;;8.91;83.33
5952;BME280;3001;42.622;23.194;2023-01-13T10:36:12;91501.47;;;8.97;83.54
5952;BME280;3001;42.622;23.194;2023-01-13T10:38:42;91498.78;;;8.89;83.59
5952;BME280;3001;42.622;23.194;2023-01-13T10:41:18;91505.13;;;8.96;84.01
5952;BME280;3001;42.622;23.194;2023-01-13T10:43:58;91500.97;;;8.95;83.27
5952;BME280;3001;42.622;23.194;2023-01-13T10:46:25;91501.91;;;9.31;82.64
5952;BME280;3001;42.622;23.194;2023-01-13T10:48:53;91498.50;;;9.04;82.77
5952;BME280;3001;42.622;23.194;2023-01-13T10:51:23;91500.72;;;9.10;82.30
5952;BME280;3001;42.622;23.194;2023-01-13T10:53:57;91498.63;;;9.12;81.81
5952;BME280;3001;42.622;23.194;2023-01-13T10:56:27;91500.94;;;9.14;82.13
5952;BME280;3001;42.622;23.194;2023-01-13T10:59:11;91500.94;;;9.27;81.55
5952;BME280;3001;42.622;23.194;2023-01-13T11:01:40;91492.38;;;9.27;81.37
5952;BME280;3001;42.622;23.194;2023-01-13T11:04:25;91493.28;;;9.49;80.93
5952;BME280;3001;42.622;23.194;2023-01-13T11:06:53;91499.91;;;9.55;79.21
5952;BME280;3001;42.622;23.194;2023-01-13T11:09:21;91493.44;;;9.39;80.13
5952;BME280;3001;42.622;23.194;2023-01-13T11:11:50;91496.72;;;9.58;79.72
5952;BME280;3001;42.622;23.194;2023-01-13T11:14:24;91492.13;;;9.55;79.56
5952;BME280;3001;42.622;23.194;2023-01-13T11:17:05;91494.81;;;9.50;79.85
5952;BME280;3001;42.622;23.194;2023-01-13T11:19:39;91495.03;;;9.40;79.34
5952;BME280;3001;42.622;23.194;2023-01-13T11:22:11;91499.69;;;9.38;79.76
5952;BME280;3001;42.622;23.194;2023-01-13T11:24:43;91495.56;;;9.37;79.97
5952;BME280;3001;42.622;23.194;2023-01-13T11:27:14;91492.59;;;9.44;80.06
5952;BME280;3001;42.622;23.194;2023-01-13T11:29:54;91487.13;;;9.32;80.41
5952;BME280;3001;42.622;23.194;2023-01-13T11:32:24;91487.72;;;9.42;79.66
5952;BME280;3001;42.622;23.194;2023-01-13T11:34:55;91491.06;;;9.56;78.63
5952;BME280;3001;42.622;23.194;2023-01-13T11:37:27;91488.66;;;9.60;79.11
5952;BME280;3001;42.622;23.194;2023-01-13T11:40:00;91491.53;;;9.58;78.37
5952;BME280;3001;42.622;23.194;2023-01-13T11:42:35;91490.19;;;9.74;78.33
5952;BME280;3001;42.622;23.194;2023-01-13T11:45:11;91490.59;;;9.54;78.62
5952;BME280;3001;42.622;23.194;2023-01-13T11:47:42;91487.63;;;9.47;79.83
5952;BME280;3001;42.622;23.194;2023-01-13T11:50:15;91476.97;;;9.62;78.82
5952;BME280;3001;42.622;23.194;2023-01-13T11:52:55;91482.81;;;9.54;79.42
5952;BME280;3001;42.622;23.194;2023-01-13T11:55:34;91479.53;;;9.49;79.50
5952;BME280;3001;42.622;23.194;2023-01-13T11:58:12;91476.88;;;9.54;79.92
5952;BME280;3001;42.622;23.194;2023-01-13T12:00:54;91474.28;;;9.40;79.23
5952;BME280;3001;42.622;23.194;2023-01-13T12:03:26;91484.91;;;9.52;79.47
5952;BME280;3001;42.622;23.194;2023-01-13T12:06:10;91480.41;;;9.58;78.73
5952;BME280;3001;42.622;23.194;2023-01-13T12:08:58;91484.66;;;9.54;79.02
5952;BME280;3001;42.622;23.194;2023-01-13T12:11:34;91481.28;;;9.53;79.00
5952;BME280;3001;42.622;23.194;2023-01-13T12:14:31;91480.09;;;9.59;78.52
5952;BME280;3001;42.622;23.194;2023-01-13T12:17:02;91489.44;;;9.60;78.74
5952;BME280;3001;42.622;23.194;2023-01-13T12:19:33;91484.06;;;9.57;78.44
5952;BME280;3001;42.622;23.194;2023-01-13T12:22:09;91476.56;;;9.42;78.64
5952;BME280;3001;42.622;23.194;2023-01-13T12:24:42;91475.69;;;9.60;78.46
5952;BME280;3001;42.622;23.194;2023-01-13T12:27:15;91480.03;;;9.64;77.87
5952;BME280;3001;42.622;23.194;2023-01-13T12:29:45;91473.97;;;9.42;78.63
5952;BME280;3001;42.622;23.194;2023-01-13T12:32:15;91480.03;;;9.51;78.37
5952;BME280;3001;42.622;23.194;2023-01-13T12:34:56;91477.25;;;9.47;78.61
5952;BME280;3001;42.622;23.194;2023-01-13T12:37:33;91473.31;;;9.50;77.91
5952;BME280;3001;42.622;23.194;2023-01-13T12:40:18;91480.97;;;9.28;78.61
5952;BME280;3001;42.622;23.194;2023-01-13T12:42:54;91487.88;;;9.32;78.84
5952;BME280;3001;42.622;23.194;2023-01-13T12:45:41;91480.50;;;9.26;78.95
5952;BME280;3001;42.622;23.194;2023-01-13T12:48:58;91480.22;;;9.27;79.47
5952;BME280;3001;42.622;23.194;2023-01-13T12:51:30;91475.41;;;9.34;78.93
5952;BME280;3001;42.622;23.194;2023-01-13T12:53:59;91486.25;;;9.36;79.17
5952;BME280;3001;42.622;23.194;2023-01-13T12:56:39;91484.44;;;9.37;79.13
5952;BME280;3001;42.622;23.194;2023-01-13T13:02:32;91489.81;;;9.27;79.40
5952;BME280;3001;42.622;23.194;2023-01-13T13:07:51;91479.34;;;9.45;78.24
5952;BME280;3001;42.622;23.194;2023-01-13T13:10:26;91489.25;;;9.43;76.46
5952;BME280;3001;42.622;23.194;2023-01-13T13:12:58;91486.56;;;9.48;76.24
5952;BME280;3001;42.622;23.194;2023-01-13T13:15:44;91497.88;;;9.25;77.01
5952;BME280;3001;42.622;23.194;2023-01-13T13:18:26;91494.34;;;9.21;77.30
5952;BME280;3001;42.622;23.194;2023-01-13T13:20:57;91492.78;;;9.20;76.34
5952;BME280;3001;42.622;23.194;2023-01-13T13:24:07;91499.03;;;9.19;77.22
5952;BME280;3001;42.622;23.194;2023-01-13T13:26:37;91499.50;;;9.21;77.25
5952;BME280;3001;42.622;23.194;2023-01-13T13:29:28;91494.81;;;9.23;78.08
5952;BME280;3001;42.622;23.194;2023-01-13T13:34:57;91496.72;;;9.31;79.58
5952;BME280;3001;42.622;23.194;2023-01-13T13:37:37;91499.19;;;9.09;80.15
5952;BME280;3001;42.622;23.194;2023-01-13T13:40:21;91487.16;;;8.86;81.56
5952;BME280;3001;42.622;23.194;2023-01-13T13:43:08;91489.88;;;8.95;82.20
5952;BME280;3001;42.622;23.194;2023-01-13T13:45:54;91493.31;;;9.04;81.84
5952;BME280;3001;42.622;23.194;2023-01-13T13:48:38;91501.06;;;8.90;82.44
5952;BME280;3001;42.622;23.194;2023-01-13T13:51:22;91499.75;;;8.93;82.78
5952;BME280;3001;42.622;23.194;2023-01-13T13:53:50;91496.97;;;9.03;81.94
5952;BME280;3001;42.622;23.194;2023-01-13T13:56:20;91489.78;;;9.13;81.94
5952;BME280;3001;42.622;23.194;2023-01-13T13:58:48;91491.78;;;8.89;83.52